sensor_id;sensor_type;location;lat;lon;timestamp;temperature;humidity
52509;DHT22;38420;53.150;6.370;2023-05-24T00:01:15;8.60;99.90
52509;DHT22;38420;53.150;6.370;2023-05-24T00:03:50;8.60;99.90
52509;DHT22;38420;53.150;6.370;2023-05-24T00:06:16;9.50;99.90
52509;DHT22;38420;53.150;6.370;2023-05-24T00:08:42;7.60;99.90
52509;DHT22;38420;53.150;6.370;2023-05-24T00:11:08;8.40;99.90
52509;DHT22;38420;53.150;6.370;2023-05-24T00:13:35;8.60;99.90
52509;DHT22;38420;53.150;6.370;2023-05-24T00:16:01;7.80;99.90
52509;DHT22;38420;53.150;6.370;2023-05-24T00:18:26;8.30;99.90
52509;DHT22;38420;53.150;6.370;2023-05-24T00:20:52;7.70;99.90
52509;DHT22;38420;53.150;6.370;2023-05-24T00:23:21;7.60;99.90
52509;DHT22;38420;53.150;6.370;2023-05-24T00:25:46;8.70;99.90
52509;DHT22;38420;53.150;6.370;2023-05-24T00:28:12;7.60;99.90
52509;DHT22;38420;53.150;6.370;2023-05-24T00:30:38;8.00;99.90
52509;DHT22;38420;53.150;6.370;2023-05-24T00:33:03;8.80;99.90
52509;DHT22;38420;53.150;6.370;2023-05-24T00:35:29;8.30;99.90
52509;DHT22;38420;53.150;6.370;2023-05-24T00:37:54;8.80;99.90
52509;DHT22;38420;53.150;6.370;2023-05-24T00:40:21;8.00;99.90
52509;DHT22;38420;53.150;6.370;2023-05-24T00:42:47;8.70;99.90
52509;DHT22;38420;53.150;6.370;2023-05-24T00:45:12;8.80;99.90
52509;DHT22;38420;53.150;6.370;2023-05-24T00:47:38;7.90;99.90
52509;DHT22;38420;53.150;6.370;2023-05-24T00:50:06;8.90;99.90
52509;DHT22;38420;53.150;6.370;2023-05-24T00:52:32;8.30;99.90
52509;DHT22;38420;53.150;6.370;2023-05-24T00:54:58;8.80;99.90
52509;DHT22;38420;53.150;6.370;2023-05-24T00:57:24;7.70;99.90
52509;DHT22;38420;53.150;6.370;2023-05-24T00:59:50;8.60;99.90
52509;DHT22;38420;53.150;6.370;2023-05-24T01:02:16;8.60;99.90
52509;DHT22;38420;53.150;6.370;2023-05-24T01:04:42;8.00;99.90
52509;DHT22;38420;53.150;6.370;2023-05-24T01:07:29;8.30;99.90
52509;DHT22;38420;53.150;6.370;2023-05-24T01:10:08;8.30;99.90
52509;DHT22;38420;53.150;6.370;2023-05-24T01:15:17;8.90;99.90
52509;DHT22;38420;53.150;6.370;2023-05-24T01:18:15;7.70;99.90
52509;DHT22;38420;53.150;6.370;2023-05-24T01:20:42;8.90;99.90
52509;DHT22;38420;53.150;6.370;2023-05-24T01:26:02;8.20;99.90
52509;DHT22;38420;53.150;6.370;2023-05-24T01:28:33;7.80;99.90
52509;DHT22;38420;53.150;6.370;2023-05-24T01:31:00;8.10;99.90
52509;DHT22;38420;53.150;6.370;2023-05-24T01:33:26;8.90;99.90
52509;DHT22;38420;53.150;6.370;2023-05-24T01:35:52;8.50;99.90
52509;DHT22;38420;53.150;6.370;2023-05-24T01:38:17;8.90;99.90
52509;DHT22;38420;53.150;6.370;2023-05-24T01:40:43;8.90;99.90
52509;DHT22;38420;53.150;6.370;2023-05-24T01:43:36;8.50;99.90
52509;DHT22;38420;53.150;6.370;2023-05-24T01:48:56;7.70;99.90
52509;DHT22;38420;53.150;6.370;2023-05-24T01:51:25;8.80;99.90
52509;DHT22;38420;53.150;6.370;2023-05-24T01:53:56;7.70;99.90
52509;DHT22;38420;53.150;6.370;2023-05-24T01:56:23;9.00;99.90
52509;DHT22;38420;53.150;6.370;2023-05-24T01:58:51;8.70;99.90
52509;DHT22;38420;53.150;6.370;2023-05-24T02:01:19;8.60;99.90
52509;DHT22;38420;53.150;6.370;2023-05-24T02:03:45;8.00;99.90
52509;DHT22;38420;53.150;6.370;2023-05-24T02:06:10;7.80;99.90
52509;DHT22;38420;53.150;6.370;2023-05-24T02:08:36;8.00;99.90
52509;DHT22;38420;53.150;6.370;2023-05-24T02:11:02;8.00;99.90
52509;DHT22;38420;53.150;6.370;2023-05-24T02:13:27;8.10;99.90
52509;DHT22;38420;53.150;6.370;2023-05-24T02:15:53;8.90;99.90
52509;DHT22;38420;53.150;6.370;2023-05-24T02:18:19;9.50;99.90
52509;DHT22;38420;53.150;6.370;2023-05-24T02:20:44;8.90;99.90
52509;DHT22;38420;53.150;6.370;2023-05-24T02:23:11;7.90;99.90
52509;DHT22;38420;53.150;6.370;2023-05-24T02:25:37;9.20;99.90
52509;DHT22;38420;53.150;6.370;2023-05-24T02:28:02;8.00;99.90
52509;DHT22;38420;53.150;6.370;2023-05-24T02:30:28;9.10;99.90
52509;DHT22;38420;53.150;6.370;2023-05-24T02:32:53;8.00;99.90
52509;DHT22;38420;53.150;6.370;2023-05-24T02:35:19;9.10;99.90
52509;DHT22;38420;53.150;6.370;2023-05-24T02:37:45;8.40;99.90
52509;DHT22;38420;53.150;6.370;2023-05-24T02:40:11;9.20;99.90
52509;DHT22;38420;53.150;6.370;2023-05-24T02:42:36;9.00;99.90
52509;DHT22;38420;53.150;6.370;2023-05-24T02:45:02;8.80;99.90
52509;DHT22;38420;53.150;6.370;2023-05-24T02:47:28;9.20;99.90
52509;DHT22;38420;53.150;6.370;2023-05-24T02:49:54;8.00;99.90
52509;DHT22;38420;53.150;6.370;2023-05-24T02:52:20;9.00;99.90
52509;DHT22;38420;53.150;6.370;2023-05-24T02:54:47;8.20;99.90
52509;DHT22;38420;53.150;6.370;2023-05-24T02:57:13;8.30;99.90
52509;DHT22;38420;53.150;6.370;2023-05-24T02:59:39;8.10;99.90
52509;DHT22;38420;53.150;6.370;2023-05-24T03:02:05;8.30;99.90
52509;DHT22;38420;53.150;6.370;2023-05-24T03:04:31;8.80;99.90
52509;DHT22;38420;53.150;6.370;2023-05-24T03:06:56;9.20;99.90
52509;DHT22;38420;53.150;6.370;2023-05-24T03:09:22;9.20;99.90
52509;DHT22;38420;53.150;6.370;2023-05-24T03:11:47;8.00;99.90
52509;DHT22;38420;53.150;6.370;2023-05-24T03:14:13;8.10;99.90
52509;DHT22;38420;53.150;6.370;2023-05-24T03:16:39;8.90;99.90
52509;DHT22;38420;53.150;6.370;2023-05-24T03:19:05;8.90;99.90
52509;DHT22;38420;53.150;6.370;2023-05-24T03:21:30;8.70;99.90
52509;DHT22;38420;53.150;6.370;2023-05-24T03:23:56;9.20;99.90
52509;DHT22;38420;53.150;6.370;2023-05-24T03:26:22;9.30;99.90
52509;DHT22;38420;53.150;6.370;2023-05-24T03:28:48;8.30;99.90
52509;DHT22;38420;53.150;6.370;2023-05-24T03:31:15;9.40;99.90
52509;DHT22;38420;53.150;6.370;2023-05-24T03:33:41;8.30;99.90
52509;DHT22;38420;53.150;6.370;2023-05-24T03:36:06;9.40;99.90
52509;DHT22;38420;53.150;6.370;2023-05-24T03:38:32;8.50;99.90
52509;DHT22;38420;53.150;6.370;2023-05-24T03:40:58;8.50;99.90
52509;DHT22;38420;53.150;6.370;2023-05-24T03:43:24;8.40;99.90
52509;DHT22;38420;53.150;6.370;2023-05-24T03:45:50;8.50;99.90
52509;DHT22;38420;53.150;6.370;2023-05-24T03:48:16;8.50;99.90
52509;DHT22;38420;53.150;6.370;2023-05-24T03:50:41;9.00;99.90
52509;DHT22;38420;53.150;6.370;2023-05-24T03:53:07;9.60;99.90
52509;DHT22;38420;53.150;6.370;2023-05-24T03:55:32;9.60;99.90
52509;DHT22;38420;53.150;6.370;2023-05-24T03:57:58;9.60;99.90
52509;DHT22;38420;53.150;6.370;2023-05-24T04:00:24;8.70;99.90
52509;DHT22;38420;53.150;6.370;2023-05-24T04:02:49;9.20;99.90
52509;DHT22;38420;53.150;6.370;2023-05-24T04:05:15;8.60;99.90
52509;DHT22;38420;53.150;6.370;2023-05-24T04:07:41;9.20;99.90
52509;DHT22;38420;53.150;6.370;2023-05-24T04:10:08;9.60;99.90
52509;DHT22;38420;53.150;6.370;2023-05-24T04:12:34;8.70;99.90
52509;DHT22;38420;53.150;6.370;2023-05-24T04:15:00;9.40;99.90
52509;DHT22;38420;53.150;6.370;2023-05-24T04:17:29;9.00;99.90
52509;DHT22;38420;53.150;6.370;2023-05-24T04:19:59;8.70;99.90
52509;DHT22;38420;53.150;6.370;2023-05-24T04:22:24;8.80;99.90
52509;DHT22;38420;53.150;6.370;2023-05-24T04:24:50;9.60;99.90
52509;DHT22;38420;53.150;6.370;2023-05-24T04:27:16;8.90;99.90
52509;DHT22;38420;53.150;6.370;2023-05-24T04:29:43;9.70;99.90
52509;DHT22;38420;53.150;6.370;2023-05-24T04:32:10;9.90;99.90
52509;DHT22;38420;53.150;6.370;2023-05-24T04:34:39;9.80;99.90
52509;DHT22;38420;53.150;6.370;2023-05-24T04:37:07;9.70;99.90
52509;DHT22;38420;53.150;6.370;2023-05-24T04:39:32;10.00;99.90
52509;DHT22;38420;53.150;6.370;2023-05-24T04:41:58;9.30;99.90
52509;DHT22;38420;53.150;6.370;2023-05-24T04:44:25;9.10;99.90
52509;DHT22;38420;53.150;6.370;2023-05-24T04:46:50;9.70;99.90
52509;DHT22;38420;53.150;6.370;2023-05-24T04:49:16;9.70;99.90
52509;DHT22;38420;53.150;6.370;2023-05-24T04:51:42;9.20;99.90
52509;DHT22;38420;53.150;6.370;2023-05-24T04:54:07;9.40;99.90
52509;DHT22;38420;53.150;6.370;2023-05-24T04:56:34;10.40;99.90
52509;DHT22;38420;53.150;6.370;2023-05-24T04:59:00;9.60;99.90
52509;DHT22;38420;53.150;6.370;2023-05-24T05:01:26;10.10;99.90
52509;DHT22;38420;53.150;6.370;2023-05-24T05:03:52;10.10;99.90
52509;DHT22;38420;53.150;6.370;2023-05-24T05:06:17;10.30;99.90
52509;DHT22;38420;53.150;6.370;2023-05-24T05:08:43;9.60;99.90
52509;DHT22;38420;53.150;6.370;2023-05-24T05:11:09;10.50;99.90
52509;DHT22;38420;53.150;6.370;2023-05-24T05:13:34;10.50;99.90
52509;DHT22;38420;53.150;6.370;2023-05-24T05:16:01;9.80;99.90
52509;DHT22;38420;53.150;6.370;2023-05-24T05:18:26;9.80;99.90
52509;DHT22;38420;53.150;6.370;2023-05-24T05:20:52;9.80;99.90
52509;DHT22;38420;53.150;6.370;2023-05-24T05:23:17;10.60;99.90
52509;DHT22;38420;53.150;6.370;2023-05-24T05:25:43;9.80;99.90
52509;DHT22;38420;53.150;6.370;2023-05-24T05:28:09;9.80;99.90
52509;DHT22;38420;53.150;6.370;2023-05-24T05:30:34;10.50;99.90
52509;DHT22;38420;53.150;6.370;2023-05-24T05:33:00;10.10;99.90
52509;DHT22;38420;53.150;6.370;2023-05-24T05:35:25;10.30;99.90
52509;DHT22;38420;53.150;6.370;2023-05-24T05:37:51;10.50;99.90
52509;DHT22;38420;53.150;6.370;2023-05-24T05:40:17;10.60;99.90
52509;DHT22;38420;53.150;6.370;2023-05-24T05:42:42;10.10;99.90
52509;DHT22;38420;53.150;6.370;2023-05-24T05:45:08;10.20;99.90
52509;DHT22;38420;53.150;6.370;2023-05-24T05:47:34;10.30;99.90
52509;DHT22;38420;53.150;6.370;2023-05-24T05:50:00;10.70;99.90
52509;DHT22;38420;53.150;6.370;2023-05-24T05:52:25;10.70;99.90
52509;DHT22;38420;53.150;6.370;2023-05-24T05:54:51;10.40;99.90
52509;DHT22;38420;53.150;6.370;2023-05-24T05:57:16;10.70;99.90
52509;DHT22;38420;53.150;6.370;2023-05-24T05:59:48;10.30;99.90
52509;DHT22;38420;53.150;6.370;2023-05-24T06:02:14;10.40;99.90
52509;DHT22;38420;53.150;6.370;2023-05-24T06:04:39;10.80;99.90
52509;DHT22;38420;53.150;6.370;2023-05-24T06:07:05;10.30;99.90
52509;DHT22;38420;53.150;6.370;2023-05-24T06:09:31;10.40;99.90
52509;DHT22;38420;53.150;6.370;2023-05-24T06:11:56;10.40;99.90
52509;DHT22;38420;53.150;6.370;2023-05-24T06:14:22;10.40;99.90
52509;DHT22;38420;53.150;6.370;2023-05-24T06:16:49;10.90;99.90
52509;DHT22;38420;53.150;6.370;2023-05-24T06:19:17;10.70;99.90
52509;DHT22;38420;53.150;6.370;2023-05-24T06:21:43;10.60;99.90
52509;DHT22;38420;53.150;6.370;2023-05-24T06:24:16;10.60;99.90
52509;DHT22;38420;53.150;6.370;2023-05-24T06:26:49;10.70;99.90
52509;DHT22;38420;53.150;6.370;2023-05-24T06:29:16;10.70;99.90
52509;DHT22;38420;53.150;6.370;2023-05-24T06:31:44;10.70;99.90
52509;DHT22;38420;53.150;6.370;2023-05-24T06:34:14;10.70;99.90
52509;DHT22;38420;53.150;6.370;2023-05-24T06:36:46;11.10;99.90
52509;DHT22;38420;53.150;6.370;2023-05-24T06:39:13;11.10;99.90
52509;DHT22;38420;53.150;6.370;2023-05-24T06:41:39;11.20;99.90
52509;DHT22;38420;53.150;6.370;2023-05-24T06:44:05;11.30;99.90
52509;DHT22;38420;53.150;6.370;2023-05-24T06:46:31;11.60;99.90
52509;DHT22;38420;53.150;6.370;2023-05-24T06:48:57;11.10;99.90
52509;DHT22;38420;53.150;6.370;2023-05-24T06:51:22;11.30;99.90
52509;DHT22;38420;53.150;6.370;2023-05-24T06:53:48;11.50;99.90
52509;DHT22;38420;53.150;6.370;2023-05-24T06:56:14;11.20;99.90
52509;DHT22;38420;53.150;6.370;2023-05-24T06:58:39;11.50;99.90
52509;DHT22;38420;53.150;6.370;2023-05-24T07:01:06;11.50;99.90
52509;DHT22;38420;53.150;6.370;2023-05-24T07:03:33;11.40;99.90
52509;DHT22;38420;53.150;6.370;2023-05-24T07:05:59;11.40;99.90
52509;DHT22;38420;53.150;6.370;2023-05-24T07:08:25;11.70;99.90
52509;DHT22;38420;53.150;6.370;2023-05-24T07:10:51;11.80;99.90
52509;DHT22;38420;53.150;6.370;2023-05-24T07:13:17;11.50;99.90
52509;DHT22;38420;53.150;6.370;2023-05-24T07:15:44;11.70;99.90
52509;DHT22;38420;53.150;6.370;2023-05-24T07:18:10;11.90;99.90
52509;DHT22;38420;53.150;6.370;2023-05-24T07:20:35;11.60;99.90
52509;DHT22;38420;53.150;6.370;2023-05-24T07:23:01;11.80;99.90
52509;DHT22;38420;53.150;6.370;2023-05-24T07:25:28;11.80;99.90
52509;DHT22;38420;53.150;6.370;2023-05-24T07:27:53;11.70;99.90
52509;DHT22;38420;53.150;6.370;2023-05-24T07:30:19;11.80;99.90
52509;DHT22;38420;53.150;6.370;2023-05-24T07:32:45;12.10;99.90
52509;DHT22;38420;53.150;6.370;2023-05-24T07:35:11;11.90;99.90
52509;DHT22;38420;53.150;6.370;2023-05-24T07:37:40;12.10;99.90
52509;DHT22;38420;53.150;6.370;2023-05-24T07:40:06;12.10;99.90
52509;DHT22;38420;53.150;6.370;2023-05-24T07:42:36;12.20;99.90
52509;DHT22;38420;53.150;6.370;2023-05-24T07:45:01;11.90;99.90
52509;DHT22;38420;53.150;6.370;2023-05-24T07:47:27;12.00;99.90
52509;DHT22;38420;53.150;6.370;2023-05-24T07:49:53;12.00;99.90
52509;DHT22;38420;53.150;6.370;2023-05-24T07:52:18;12.00;99.90
52509;DHT22;38420;53.150;6.370;2023-05-24T07:54:44;12.10;99.90
52509;DHT22;38420;53.150;6.370;2023-05-24T07:57:10;12.20;99.90
52509;DHT22;38420;53.150;6.370;2023-05-24T07:59:37;11.90;99.90
52509;DHT22;38420;53.150;6.370;2023-05-24T08:02:03;12.10;99.90
52509;DHT22;38420;53.150;6.370;2023-05-24T08:04:30;12.00;99.90
52509;DHT22;38420;53.150;6.370;2023-05-24T08:06:56;12.30;99.90
52509;DHT22;38420;53.150;6.370;2023-05-24T08:09:22;12.10;99.90
52509;DHT22;38420;53.150;6.370;2023-05-24T08:11:48;12.10;99.90
52509;DHT22;38420;53.150;6.370;2023-05-24T08:14:14;12.20;99.90
52509;DHT22;38420;53.150;6.370;2023-05-24T08:16:39;12.20;99.90
52509;DHT22;38420;53.150;6.370;2023-05-24T08:19:05;12.10;99.90
52509;DHT22;38420;53.150;6.370;2023-05-24T08:21:31;12.30;99.90
52509;DHT22;38420;53.150;6.370;2023-05-24T08:23:58;12.20;99.90
52509;DHT22;38420;53.150;6.370;2023-05-24T08:26:25;12.40;99.90
52509;DHT22;38420;53.150;6.370;2023-05-24T08:28:51;12.40;99.90
52509;DHT22;38420;53.150;6.370;2023-05-24T08:31:17;12.40;99.90
52509;DHT22;38420;53.150;6.370;2023-05-24T08:33:43;12.40;99.90
52509;DHT22;38420;53.150;6.370;2023-05-24T08:36:09;12.50;99.90
52509;DHT22;38420;53.150;6.370;2023-05-24T08:38:34;12.40;99.90
52509;DHT22;38420;53.150;6.370;2023-05-24T08:41:04;12.50;99.90
52509;DHT22;38420;53.150;6.370;2023-05-24T08:43:31;12.60;99.90
52509;DHT22;38420;53.150;6.370;2023-05-24T08:45:58;12.60;99.90
52509;DHT22;38420;53.150;6.370;2023-05-24T08:48:24;13.30;99.90
52509;DHT22;38420;53.150;6.370;2023-05-24T08:50:50;12.70;99.90
52509;DHT22;38420;53.150;6.370;2023-05-24T08:53:17;12.70;99.90
52509;DHT22;38420;53.150;6.370;2023-05-24T08:55:43;12.60;99.90
52509;DHT22;38420;53.150;6.370;2023-05-24T08:58:10;12.70;99.90
52509;DHT22;38420;53.150;6.370;2023-05-24T09:00:35;12.80;99.90
52509;DHT22;38420;53.150;6.370;2023-05-24T09:03:02;12.90;99.90
52509;DHT22;38420;53.150;6.370;2023-05-24T09:05:29;12.80;99.90
52509;DHT22;38420;53.150;6.370;2023-05-24T09:07:55;12.90;99.90
52509;DHT22;38420;53.150;6.370;2023-05-24T09:10:24;13.00;99.90
52509;DHT22;38420;53.150;6.370;2023-05-24T09:12:55;13.00;99.90
52509;DHT22;38420;53.150;6.370;2023-05-24T09:15:22;13.10;99.90
52509;DHT22;38420;53.150;6.370;2023-05-24T09:17:48;13.10;99.90
52509;DHT22;38420;53.150;6.370;2023-05-24T09:20:13;13.10;99.90
52509;DHT22;38420;53.150;6.370;2023-05-24T09:22:42;13.20;99.90
52509;DHT22;38420;53.150;6.370;2023-05-24T09:25:12;13.20;99.90
52509;DHT22;38420;53.150;6.370;2023-05-24T09:27:39;13.20;99.90
52509;DHT22;38420;53.150;6.370;2023-05-24T09:30:11;13.20;99.90
52509;DHT22;38420;53.150;6.370;2023-05-24T09:32:37;13.10;99.90
52509;DHT22;38420;53.150;6.370;2023-05-24T09:35:07;13.10;99.90
52509;DHT22;38420;53.150;6.370;2023-05-24T09:37:35;13.30;99.90
52509;DHT22;38420;53.150;6.370;2023-05-24T09:40:03;13.50;99.90
52509;DHT22;38420;53.150;6.370;2023-05-24T09:42:31;13.50;99.90
52509;DHT22;38420;53.150;6.370;2023-05-24T09:45:04;13.50;99.90
52509;DHT22;38420;53.150;6.370;2023-05-24T09:47:43;13.30;99.90
52509;DHT22;38420;53.150;6.370;2023-05-24T09:50:14;13.20;99.90
52509;DHT22;38420;53.150;6.370;2023-05-24T09:52:40;13.30;99.90
52509;DHT22;38420;53.150;6.370;2023-05-24T09:55:19;13.50;99.90
52509;DHT22;38420;53.150;6.370;2023-05-24T09:57:50;13.50;99.90
52509;DHT22;38420;53.150;6.370;2023-05-24T10:00:21;13.60;99.90
52509;DHT22;38420;53.150;6.370;2023-05-24T10:03:00;13.50;99.90
52509;DHT22;38420;53.150;6.370;2023-05-24T10:05:28;13.60;99.90
52509;DHT22;38420;53.150;6.370;2023-05-24T10:07:54;13.60;99.90
52509;DHT22;38420;53.150;6.370;2023-05-24T10:10:20;13.60;99.90
52509;DHT22;38420;53.150;6.370;2023-05-24T10:12:47;14.00;99.90
52509;DHT22;38420;53.150;6.370;2023-05-24T10:15:14;13.70;99.90
52509;DHT22;38420;53.150;6.370;2023-05-24T10:17:40;13.80;99.90
52509;DHT22;38420;53.150;6.370;2023-05-24T10:20:06;13.70;99.90
52509;DHT22;38420;53.150;6.370;2023-05-24T10:22:36;13.70;99.90
52509;DHT22;38420;53.150;6.370;2023-05-24T10:25:05;13.60;99.90
52509;DHT22;38420;53.150;6.370;2023-05-24T10:27:32;13.60;99.90
52509;DHT22;38420;53.150;6.370;2023-05-24T10:30:08;13.70;99.90
52509;DHT22;38420;53.150;6.370;2023-05-24T10:32:36;13.80;99.90
52509;DHT22;38420;53.150;6.370;2023-05-24T10:35:04;14.00;99.90
52509;DHT22;38420;53.150;6.370;2023-05-24T10:37:30;14.00;99.90
52509;DHT22;38420;53.150;6.370;2023-05-24T10:39:58;13.80;99.90
52509;DHT22;38420;53.150;6.370;2023-05-24T10:42:24;13.80;99.90
52509;DHT22;38420;53.150;6.370;2023-05-24T10:44:50;13.80;99.90
52509;DHT22;38420;53.150;6.370;2023-05-24T10:47:19;14.00;99.90
52509;DHT22;38420;53.150;6.370;2023-05-24T10:49:53;14.30;99.90
52509;DHT22;38420;53.150;6.370;2023-05-24T10:52:35;14.20;99.90
52509;DHT22;38420;53.150;6.370;2023-05-24T10:57:32;14.30;99.90
52509;DHT22;38420;53.150;6.370;2023-05-24T11:02:49;14.30;99.90
52509;DHT22;38420;53.150;6.370;2023-05-24T11:05:16;14.30;99.90
52509;DHT22;38420;53.150;6.370;2023-05-24T11:07:43;14.40;99.90
52509;DHT22;38420;53.150;6.370;2023-05-24T11:10:13;14.40;99.90
52509;DHT22;38420;53.150;6.370;2023-05-24T11:12:39;14.10;99.90
52509;DHT22;38420;53.150;6.370;2023-05-24T11:15:08;14.10;99.90
52509;DHT22;38420;53.150;6.370;2023-05-24T11:20:37;14.00;99.90
52509;DHT22;38420;53.150;6.370;2023-05-24T11:23:06;14.00;99.90
52509;DHT22;38420;53.150;6.370;2023-05-24T11:25:34;14.10;99.90
52509;DHT22;38420;53.150;6.370;2023-05-24T11:28:02;14.30;99.90
52509;DHT22;38420;53.150;6.370;2023-05-24T11:30:31;14.50;99.90
52509;DHT22;38420;53.150;6.370;2023-05-24T11:32:57;14.60;99.90
52509;DHT22;38420;53.150;6.370;2023-05-24T11:35:25;14.90;99.90
52509;DHT22;38420;53.150;6.370;2023-05-24T11:37:53;14.80;99.90
52509;DHT22;38420;53.150;6.370;2023-05-24T11:40:18;14.70;99.90
52509;DHT22;38420;53.150;6.370;2023-05-24T11:42:45;14.60;99.90
52509;DHT22;38420;53.150;6.370;2023-05-24T11:45:11;14.60;99.90
52509;DHT22;38420;53.150;6.370;2023-05-24T11:47:38;14.30;99.90
52509;DHT22;38420;53.150;6.370;2023-05-24T11:50:04;14.30;99.90
52509;DHT22;38420;53.150;6.370;2023-05-24T11:52:31;14.40;99.90
52509;DHT22;38420;53.150;6.370;2023-05-24T11:54:57;14.20;99.90
52509;DHT22;38420;53.150;6.370;2023-05-24T11:57:36;14.10;99.90
52509;DHT22;38420;53.150;6.370;2023-05-24T12:00:05;13.90;99.90
52509;DHT22;38420;53.150;6.370;2023-05-24T12:02:35;13.90;99.90
52509;DHT22;38420;53.150;6.370;2023-05-24T12:05:08;13.90;99.90
52509;DHT22;38420;53.150;6.370;2023-05-24T12:07:36;13.80;99.90
52509;DHT22;38420;53.150;6.370;2023-05-24T12:10:03;13.80;99.90
52509;DHT22;38420;53.150;6.370;2023-05-24T12:12:29;13.80;99.90
52509;DHT22;38420;53.150;6.370;2023-05-24T12:14:55;14.00;99.90
52509;DHT22;38420;53.150;6.370;2023-05-24T12:17:21;13.90;99.90
52509;DHT22;38420;53.150;6.370;2023-05-24T12:19:49;13.90;99.90
52509;DHT22;38420;53.150;6.370;2023-05-24T12:22:15;13.90;99.90
52509;DHT22;38420;53.150;6.370;2023-05-24T12:24:40;13.80;99.90
52509;DHT22;38420;53.150;6.370;2023-05-24T12:27:06;13.80;99.90
52509;DHT22;38420;53.150;6.370;2023-05-24T12:29:38;13.90;99.90
52509;DHT22;38420;53.150;6.370;2023-05-24T12:32:05;13.80;99.90
52509;DHT22;38420;53.150;6.370;2023-05-24T12:34:31;13.80;99.90
52509;DHT22;38420;53.150;6.370;2023-05-24T12:36:58;13.80;99.90
52509;DHT22;38420;53.150;6.370;2023-05-24T12:39:25;14.00;99.90
52509;DHT22;38420;53.150;6.370;2023-05-24T12:42:01;13.80;99.90
52509;DHT22;38420;53.150;6.370;2023-05-24T12:44:32;13.80;99.90
52509;DHT22;38420;53.150;6.370;2023-05-24T12:47:00;13.70;99.90
52509;DHT22;38420;53.150;6.370;2023-05-24T12:49:26;13.70;99.90
52509;DHT22;38420;53.150;6.370;2023-05-24T12:51:53;13.70;99.90
52509;DHT22;38420;53.150;6.370;2023-05-24T12:54:23;13.80;99.90
52509;DHT22;38420;53.150;6.370;2023-05-24T12:56:49;13.80;99.90
52509;DHT22;38420;53.150;6.370;2023-05-24T12:59:15;13.90;99.90
52509;DHT22;38420;53.150;6.370;2023-05-24T13:01:41;14.00;99.90
52509;DHT22;38420;53.150;6.370;2023-05-24T13:04:07;14.20;99.90
52509;DHT22;38420;53.150;6.370;2023-05-24T13:06:35;14.00;99.90
52509;DHT22;38420;53.150;6.370;2023-05-24T13:09:02;14.00;99.90
52509;DHT22;38420;53.150;6.370;2023-05-24T13:11:28;14.00;99.90
52509;DHT22;38420;53.150;6.370;2023-05-24T13:13:55;13.90;99.90
52509;DHT22;38420;53.150;6.370;2023-05-24T13:16:22;13.90;99.90
52509;DHT22;38420;53.150;6.370;2023-05-24T13:18:48;13.80;99.90
52509;DHT22;38420;53.150;6.370;2023-05-24T13:21:14;13.80;99.90
52509;DHT22;38420;53.150;6.370;2023-05-24T13:23:40;13.80;99.90
52509;DHT22;38420;53.150;6.370;2023-05-24T13:26:07;13.90;99.90
52509;DHT22;38420;53.150;6.370;2023-05-24T13:28:33;13.90;99.90
52509;DHT22;38420;53.150;6.370;2023-05-24T13:30:59;13.90;99.90
52509;DHT22;38420;53.150;6.370;2023-05-24T13:33:25;13.90;99.90
52509;DHT22;38420;53.150;6.370;2023-05-24T13:35:52;13.90;99.90
52509;DHT22;38420;53.150;6.370;2023-05-24T13:38:19;14.00;99.90
52509;DHT22;38420;53.150;6.370;2023-05-24T13:40:45;14.00;99.90
52509;DHT22;38420;53.150;6.370;2023-05-24T13:43:11;14.10;99.90
52509;DHT22;38420;53.150;6.370;2023-05-24T13:45:36;13.90;99.90
52509;DHT22;38420;53.150;6.370;2023-05-24T13:48:02;13.80;99.90
52509;DHT22;38420;53.150;6.370;2023-05-24T13:50:35;13.80;99.90
52509;DHT22;38420;53.150;6.370;2023-05-24T13:53:01;13.90;99.90
52509;DHT22;38420;53.150;6.370;2023-05-24T13:55:32;13.90;99.90
52509;DHT22;38420;53.150;6.370;2023-05-24T13:57:59;13.90;99.90
52509;DHT22;38420;53.150;6.370;2023-05-24T14:00:26;14.00;99.90
52509;DHT22;38420;53.150;6.370;2023-05-24T14:02:53;14.10;99.90
52509;DHT22;38420;53.150;6.370;2023-05-24T14:05:19;14.20;99.90
52509;DHT22;38420;53.150;6.370;2023-05-24T14:07:45;14.40;99.90
52509;DHT22;38420;53.150;6.370;2023-05-24T14:10:11;14.50;99.90
52509;DHT22;38420;53.150;6.370;2023-05-24T14:12:37;14.70;99.90
52509;DHT22;38420;53.150;6.370;2023-05-24T14:15:03;14.90;99.90
52509;DHT22;38420;53.150;6.370;2023-05-24T14:17:30;15.00;99.90
52509;DHT22;38420;53.150;6.370;2023-05-24T14:19:56;15.00;99.90
52509;DHT22;38420;53.150;6.370;2023-05-24T14:22:21;15.10;99.90
52509;DHT22;38420;53.150;6.370;2023-05-24T14:24:49;15.00;99.90
52509;DHT22;38420;53.150;6.370;2023-05-24T14:27:14;14.80;99.90
52509;DHT22;38420;53.150;6.370;2023-05-24T14:29:40;14.70;99.90
52509;DHT22;38420;53.150;6.370;2023-05-24T14:32:06;14.70;99.90
52509;DHT22;38420;53.150;6.370;2023-05-24T14:34:31;14.50;99.90
52509;DHT22;38420;53.150;6.370;2023-05-24T14:36:57;14.50;99.90
52509;DHT22;38420;53.150;6.370;2023-05-24T14:39:22;14.40;99.90
52509;DHT22;38420;53.150;6.370;2023-05-24T14:41:48;14.50;99.90
52509;DHT22;38420;53.150;6.370;2023-05-24T14:44:13;14.60;99.90
52509;DHT22;38420;53.150;6.370;2023-05-24T14:46:39;14.70;99.90
52509;DHT22;38420;53.150;6.370;2023-05-24T14:49:05;14.70;99.90
52509;DHT22;38420;53.150;6.370;2023-05-24T14:51:31;14.80;99.90
52509;DHT22;38420;53.150;6.370;2023-05-24T14:53:57;14.90;99.90
52509;DHT22;38420;53.150;6.370;2023-05-24T14:56:22;14.80;99.90
52509;DHT22;38420;53.150;6.370;2023-05-24T14:58:48;14.90;99.90
52509;DHT22;38420;53.150;6.370;2023-05-24T15:01:13;15.00;99.90
52509;DHT22;38420;53.150;6.370;2023-05-24T15:03:39;15.00;99.90
52509;DHT22;38420;53.150;6.370;2023-05-24T15:06:04;15.00;99.90
52509;DHT22;38420;53.150;6.370;2023-05-24T15:08:31;14.90;99.90
52509;DHT22;38420;53.150;6.370;2023-05-24T15:10:57;15.00;99.90
52509;DHT22;38420;53.150;6.370;2023-05-24T15:13:22;15.00;99.90
52509;DHT22;38420;53.150;6.370;2023-05-24T15:15:50;15.00;99.90
52509;DHT22;38420;53.150;6.370;2023-05-24T15:18:18;15.00;99.90
52509;DHT22;38420;53.150;6.370;2023-05-24T15:20:43;15.00;99.90
52509;DHT22;38420;53.150;6.370;2023-05-24T15:23:09;14.90;99.90
52509;DHT22;38420;53.150;6.370;2023-05-24T15:25:36;14.80;99.90
52509;DHT22;38420;53.150;6.370;2023-05-24T15:28:01;15.00;99.90
52509;DHT22;38420;53.150;6.370;2023-05-24T15:30:27;15.00;99.90
52509;DHT22;38420;53.150;6.370;2023-05-24T15:32:53;14.90;99.90
52509;DHT22;38420;53.150;6.370;2023-05-24T15:35:18;14.90;99.90
52509;DHT22;38420;53.150;6.370;2023-05-24T15:37:44;14.80;99.90
52509;DHT22;38420;53.150;6.370;2023-05-24T15:40:10;14.70;99.90
52509;DHT22;38420;53.150;6.370;2023-05-24T15:42:36;14.70;99.90
52509;DHT22;38420;53.150;6.370;2023-05-24T15:45:02;14.70;99.90
52509;DHT22;38420;53.150;6.370;2023-05-24T15:47:28;14.70;99.90
52509;DHT22;38420;53.150;6.370;2023-05-24T15:50:00;14.70;99.90